PWSweather.com
Personal Weather Stations
Station Observations
KOHCLEVE171
Cleveland, OH

Cleveland, OH

Lat: 41.48646164, Lon: -81.46408081

Elevation: 1059

Station Type:

High Low Average
Temperature 29.1°F-1.6°C 10.2°F-12.1°C 20.4°F-6.4°C
Dew Point 28.6°F-1.9°C 3.6°F-15.8°C 15.9°F-8.9°C
Winds 12.5 mph 20.1 kmh 0.2 mph 0.3 kmh 3.0 mph S4.8 kmh S
Wind Gusts 20.6 mph33.2 kmh 0.7 mph1.1 kmh 5.0 mph8.0 kmh
Humidity 98% 64% 83%
Pressure 30.17 in1021.7 mb 29.81 in1009.5 mb -
Precipitation 0.00 in0.0 mm - -
Hour Temp Dew Point Humidity Winds Wind Gusts Pressure Precip Precip Rate Daily Precip Total
12:04 AM 25.3°F-3.7°C 22.3°F-5.4°C 88% 5.6 mph SSE9.0 kmh SSE 7.8 mph12.6 kmh 29.96 in1014.6 mb 0.00 in0.0 mm 0.00 in0.0 mm 0.00 in0.0 mm
12:09 AM 25.3°F-3.7°C 22.6°F-5.2°C 89% 5.4 mph SSE8.7 kmh SSE 8.5 mph13.7 kmh 29.95 in1014.2 mb 0.00 in0.0 mm 0.00 in0.0 mm 0.00 in0.0 mm
12:14 AM 25.3°F-3.7°C 22.6°F-5.2°C 89% 6.7 mph SSW10.8 kmh SSW 11.9 mph19.2 kmh 29.95 in1014.2 mb 0.00 in0.0 mm 0.00 in0.0 mm 0.00 in0.0 mm
12:19 AM 25.3°F-3.7°C 22.8°F-5.1°C 90% 4.7 mph SW7.6 kmh SW 7.4 mph11.9 kmh 29.95 in1014.2 mb 0.00 in0.0 mm 0.00 in0.0 mm 0.00 in0.0 mm
12:24 AM 25.3°F-3.7°C 23.0°F-5.0°C 91% 4.9 mph SSE7.9 kmh SSE 8.1 mph13.0 kmh 29.94 in1013.9 mb 0.00 in0.0 mm 0.00 in0.0 mm 0.00 in0.0 mm
12:28 AM 25.5°F-3.6°C 23.7°F-4.6°C 93% 5.6 mph S9.0 kmh S 10.1 mph16.3 kmh 29.93 in1013.5 mb 0.00 in0.0 mm 0.00 in0.0 mm 0.00 in0.0 mm
12:33 AM 25.5°F-3.6°C 23.7°F-4.6°C 93% 6.3 mph S10.1 kmh S 13.0 mph20.9 kmh 29.93 in1013.5 mb 0.00 in0.0 mm 0.00 in0.0 mm 0.00 in0.0 mm
12:38 AM 25.5°F-3.6°C 24.3°F-4.3°C 95% 5.6 mph S9.0 kmh S 9.2 mph14.8 kmh 29.93 in1013.5 mb 0.00 in0.0 mm 0.00 in0.0 mm 0.00 in0.0 mm
12:43 AM 25.5°F-3.6°C 24.3°F-4.3°C 95% 3.8 mph S6.1 kmh S 6.3 mph10.1 kmh 29.92 in1013.2 mb 0.00 in0.0 mm 0.00 in0.0 mm 0.00 in0.0 mm
12:48 AM 25.7°F-3.5°C 24.4°F-4.2°C 95% 5.4 mph SSE8.7 kmh SSE 7.6 mph12.2 kmh 29.91 in1012.9 mb 0.00 in0.0 mm 0.00 in0.0 mm 0.00 in0.0 mm
12:53 AM 25.7°F-3.5°C 24.4°F-4.2°C 95% 4.5 mph SSW7.2 kmh SSW 6.9 mph11.1 kmh 29.90 in1012.5 mb 0.00 in0.0 mm 0.00 in0.0 mm 0.00 in0.0 mm
01:03 AM 25.9°F-3.4°C 24.6°F-4.1°C 95% 5.1 mph S8.2 kmh S 9.8 mph15.8 kmh 29.89 in1012.2 mb 0.00 in0.0 mm 0.00 in0.0 mm 0.00 in0.0 mm
01:08 AM 25.9°F-3.4°C 24.6°F-4.1°C 95% 4.0 mph SSE6.4 kmh SSE 6.3 mph10.1 kmh 29.88 in1011.9 mb 0.00 in0.0 mm 0.00 in0.0 mm 0.00 in0.0 mm
01:13 AM 25.7°F-3.5°C 24.4°F-4.2°C 95% 3.1 mph SE5.0 kmh SE 5.6 mph9.0 kmh 29.88 in1011.9 mb 0.00 in0.0 mm 0.00 in0.0 mm 0.00 in0.0 mm
01:18 AM 25.7°F-3.5°C 24.4°F-4.2°C 95% 3.8 mph S6.1 kmh S 6.5 mph10.5 kmh 29.88 in1011.9 mb 0.00 in0.0 mm 0.00 in0.0 mm 0.00 in0.0 mm
01:23 AM 25.9°F-3.4°C 24.6°F-4.1°C 95% 7.4 mph SE11.9 kmh SE 10.5 mph16.9 kmh 29.87 in1011.5 mb 0.00 in0.0 mm 0.00 in0.0 mm 0.00 in0.0 mm
01:28 AM 25.9°F-3.4°C 25.0°F-3.9°C 96% 8.3 mph SSW13.4 kmh SSW 14.1 mph22.7 kmh 29.88 in1011.9 mb 0.00 in0.0 mm 0.00 in0.0 mm 0.00 in0.0 mm
01:33 AM 26.1°F-3.3°C 25.2°F-3.8°C 96% 8.1 mph SSE13.0 kmh SSE 14.8 mph23.8 kmh 29.87 in1011.5 mb 0.00 in0.0 mm 0.00 in0.0 mm 0.00 in0.0 mm
01:38 AM 26.1°F-3.3°C 25.2°F-3.8°C 96% 6.9 mph SW11.1 kmh SW 12.3 mph19.8 kmh 29.87 in1011.5 mb 0.00 in0.0 mm 0.00 in0.0 mm 0.00 in0.0 mm
01:43 AM 26.2°F-3.2°C 25.3°F-3.7°C 96% 7.2 mph SSE11.6 kmh SSE 10.5 mph16.9 kmh 29.87 in1011.5 mb 0.00 in0.0 mm 0.00 in0.0 mm 0.00 in0.0 mm
01:48 AM 26.6°F-3.0°C 25.7°F-3.5°C 96% 6.9 mph SSW11.1 kmh SSW 10.1 mph16.3 kmh 29.86 in1011.2 mb 0.00 in0.0 mm 0.00 in0.0 mm 0.00 in0.0 mm
01:53 AM 26.8°F-2.9°C 25.9°F-3.4°C 96% 12.5 mph SSE20.1 kmh SSE 18.3 mph29.5 kmh 29.85 in1010.8 mb 0.00 in0.0 mm 0.00 in0.0 mm 0.00 in0.0 mm
01:58 AM 27.0°F-2.8°C 26.1°F-3.3°C 96% 7.6 mph SW12.2 kmh SW 12.1 mph19.5 kmh 29.85 in1010.8 mb 0.00 in0.0 mm 0.00 in0.0 mm 0.00 in0.0 mm
02:03 AM 27.1°F-2.7°C 26.2°F-3.2°C 96% 7.6 mph S12.2 kmh S 10.7 mph17.2 kmh 29.85 in1010.8 mb 0.00 in0.0 mm 0.00 in0.0 mm 0.00 in0.0 mm
02:08 AM 27.1°F-2.7°C 26.2°F-3.2°C 96% 6.5 mph S10.5 kmh S 10.1 mph16.3 kmh 29.85 in1010.8 mb 0.00 in0.0 mm 0.00 in0.0 mm 0.00 in0.0 mm
02:13 AM 27.3°F-2.6°C 26.4°F-3.1°C 96% 6.3 mph SW10.1 kmh SW 11.0 mph17.7 kmh 29.84 in1010.5 mb 0.00 in0.0 mm 0.00 in0.0 mm 0.00 in0.0 mm
02:18 AM 27.3°F-2.6°C 26.4°F-3.1°C 96% 8.3 mph SW13.4 kmh SW 15.4 mph24.8 kmh 29.83 in1010.2 mb 0.00 in0.0 mm 0.00 in0.0 mm 0.00 in0.0 mm
02:23 AM 27.5°F-2.5°C 26.4°F-3.1°C 96% 7.4 mph S11.9 kmh S 11.0 mph17.7 kmh 29.83 in1010.2 mb 0.00 in0.0 mm 0.00 in0.0 mm 0.00 in0.0 mm
02:28 AM 27.5°F-2.5°C 26.4°F-3.1°C 96% 7.8 mph S12.6 kmh S 13.4 mph21.6 kmh 29.83 in1010.2 mb 0.00 in0.0 mm 0.00 in0.0 mm 0.00 in0.0 mm
02:33 AM 27.7°F-2.4°C 27.1°F-2.7°C 98% 9.4 mph S15.1 kmh S 14.5 mph23.3 kmh 29.83 in1010.2 mb 0.00 in0.0 mm 0.00 in0.0 mm 0.00 in0.0 mm
02:38 AM 27.7°F-2.4°C 27.1°F-2.7°C 98% 6.5 mph SSW10.5 kmh SSW 9.2 mph14.8 kmh 29.83 in1010.2 mb 0.00 in0.0 mm 0.00 in0.0 mm 0.00 in0.0 mm
02:43 AM 27.7°F-2.4°C 27.1°F-2.7°C 98% 9.4 mph SSW15.1 kmh SSW 16.8 mph27.0 kmh 29.82 in1009.8 mb 0.00 in0.0 mm 0.00 in0.0 mm 0.00 in0.0 mm
02:48 AM 27.7°F-2.4°C 27.1°F-2.7°C 98% 6.3 mph SW10.1 kmh SW 14.3 mph23.0 kmh 29.82 in1009.8 mb 0.00 in0.0 mm 0.00 in0.0 mm 0.00 in0.0 mm
02:53 AM 27.9°F-2.3°C 27.3°F-2.6°C 98% 9.6 mph SW15.4 kmh SW 17.9 mph28.8 kmh 29.82 in1009.8 mb 0.00 in0.0 mm 0.00 in0.0 mm 0.00 in0.0 mm
02:58 AM 28.0°F-2.2°C 27.5°F-2.5°C 98% 6.5 mph S10.5 kmh S 9.4 mph15.1 kmh 29.82 in1009.8 mb 0.00 in0.0 mm 0.00 in0.0 mm 0.00 in0.0 mm
03:03 AM 28.0°F-2.2°C 27.5°F-2.5°C 98% 10.7 mph SSW17.2 kmh SSW 14.5 mph23.3 kmh 29.82 in1009.8 mb 0.00 in0.0 mm 0.00 in0.0 mm 0.00 in0.0 mm
03:08 AM 28.0°F-2.2°C 27.5°F-2.5°C 98% 7.4 mph SSW11.9 kmh SSW 10.5 mph16.9 kmh 29.82 in1009.8 mb 0.00 in0.0 mm 0.00 in0.0 mm 0.00 in0.0 mm
03:13 AM 28.0°F-2.2°C 27.5°F-2.5°C 98% 11.4 mph SSW18.3 kmh SSW 20.6 mph33.2 kmh 29.82 in1009.8 mb 0.00 in0.0 mm 0.00 in0.0 mm 0.00 in0.0 mm
03:18 AM 28.0°F-2.2°C 27.5°F-2.5°C 98% 7.4 mph SSW11.9 kmh SSW 9.6 mph15.4 kmh 29.82 in1009.8 mb 0.00 in0.0 mm 0.00 in0.0 mm 0.00 in0.0 mm
03:23 AM 28.2°F-2.1°C 27.7°F-2.4°C 98% 5.6 mph SW9.0 kmh SW 9.2 mph14.8 kmh 29.82 in1009.8 mb 0.00 in0.0 mm 0.00 in0.0 mm 0.00 in0.0 mm
03:28 AM 28.0°F-2.2°C 27.5°F-2.5°C 98% 5.8 mph S9.3 kmh S 8.3 mph13.4 kmh 29.82 in1009.8 mb 0.00 in0.0 mm 0.00 in0.0 mm 0.00 in0.0 mm
03:33 AM 28.2°F-2.1°C 27.7°F-2.4°C 98% 6.5 mph SSW10.5 kmh SSW 14.8 mph23.8 kmh 29.81 in1009.5 mb 0.00 in0.0 mm 0.00 in0.0 mm 0.00 in0.0 mm
03:38 AM 28.2°F-2.1°C 27.7°F-2.4°C 98% 5.8 mph S9.3 kmh S 8.7 mph14.0 kmh 29.82 in1009.8 mb 0.00 in0.0 mm 0.00 in0.0 mm 0.00 in0.0 mm
03:43 AM 28.2°F-2.1°C 27.7°F-2.4°C 98% 4.7 mph S7.6 kmh S 8.5 mph13.7 kmh 29.82 in1009.8 mb 0.00 in0.0 mm 0.00 in0.0 mm 0.00 in0.0 mm
03:48 AM 28.4°F-2.0°C 27.9°F-2.3°C 98% 7.6 mph S12.2 kmh S 11.0 mph17.7 kmh 29.82 in1009.8 mb 0.00 in0.0 mm 0.00 in0.0 mm 0.00 in0.0 mm
03:53 AM 28.4°F-2.0°C 27.9°F-2.3°C 98% 3.6 mph SSW5.8 kmh SSW 6.3 mph10.1 kmh 29.83 in1010.2 mb 0.00 in0.0 mm 0.00 in0.0 mm 0.00 in0.0 mm
03:58 AM 28.6°F-1.9°C 28.0°F-2.2°C 98% 3.4 mph S5.5 kmh S 7.6 mph12.2 kmh 29.82 in1009.8 mb 0.00 in0.0 mm 0.00 in0.0 mm 0.00 in0.0 mm
04:03 AM 28.6°F-1.9°C 28.0°F-2.2°C 98% 5.6 mph SSW9.0 kmh SSW 13.0 mph20.9 kmh 29.82 in1009.8 mb 0.00 in0.0 mm 0.00 in0.0 mm 0.00 in0.0 mm
04:08 AM 28.6°F-1.9°C 28.0°F-2.2°C 98% 6.9 mph SW11.1 kmh SW 12.1 mph19.5 kmh 29.83 in1010.2 mb 0.00 in0.0 mm 0.00 in0.0 mm 0.00 in0.0 mm
04:13 AM 28.6°F-1.9°C 28.0°F-2.2°C 98% 2.2 mph SSW3.5 kmh SSW 4.0 mph6.4 kmh 29.82 in1009.8 mb 0.00 in0.0 mm 0.00 in0.0 mm 0.00 in0.0 mm
04:18 AM 28.8°F-1.8°C 28.2°F-2.1°C 98% 4.7 mph SSW7.6 kmh SSW 8.7 mph14.0 kmh 29.82 in1009.8 mb 0.00 in0.0 mm 0.00 in0.0 mm 0.00 in0.0 mm
04:23 AM 28.8°F-1.8°C 28.2°F-2.1°C 98% 6.5 mph SSW10.5 kmh SSW 12.1 mph19.5 kmh 29.82 in1009.8 mb 0.00 in0.0 mm 0.00 in0.0 mm 0.00 in0.0 mm
04:28 AM 28.9°F-1.7°C 28.4°F-2.0°C 98% 3.6 mph SSW5.8 kmh SSW 7.4 mph11.9 kmh 29.82 in1009.8 mb 0.00 in0.0 mm 0.00 in0.0 mm 0.00 in0.0 mm
04:33 AM 28.9°F-1.7°C 28.4°F-2.0°C 98% 6.0 mph SSW9.7 kmh SSW 9.4 mph15.1 kmh 29.82 in1009.8 mb 0.00 in0.0 mm 0.00 in0.0 mm 0.00 in0.0 mm
04:38 AM 28.9°F-1.7°C 28.4°F-2.0°C 98% 4.9 mph S7.9 kmh S 9.2 mph14.8 kmh 29.82 in1009.8 mb 0.00 in0.0 mm 0.00 in0.0 mm 0.00 in0.0 mm
04:43 AM 29.1°F-1.6°C 28.6°F-1.9°C 98% 3.8 mph SW6.1 kmh SW 8.9 mph14.3 kmh 29.82 in1009.8 mb 0.00 in0.0 mm 0.00 in0.0 mm 0.00 in0.0 mm
04:48 AM 29.1°F-1.6°C 28.6°F-1.9°C 98% 1.3 mph W2.1 kmh W 2.7 mph4.3 kmh 29.83 in1010.2 mb 0.00 in0.0 mm 0.00 in0.0 mm 0.00 in0.0 mm
04:53 AM 28.9°F-1.7°C 28.4°F-2.0°C 98% 2.2 mph WNW3.5 kmh WNW 4.3 mph6.9 kmh 29.84 in1010.5 mb 0.00 in0.0 mm 0.00 in0.0 mm 0.00 in0.0 mm
04:58 AM 28.6°F-1.9°C 28.0°F-2.2°C 98% 4.9 mph WNW7.9 kmh WNW 9.4 mph15.1 kmh 29.84 in1010.5 mb 0.00 in0.0 mm 0.00 in0.0 mm 0.00 in0.0 mm
05:03 AM 28.0°F-2.2°C 27.5°F-2.5°C 98% 4.7 mph 7.6 kmh 10.1 mph16.3 kmh 29.85 in1010.8 mb 0.00 in0.0 mm 0.00 in0.0 mm 0.00 in0.0 mm
05:08 AM 27.7°F-2.4°C 26.6°F-3.0°C 96% 4.3 mph WNW6.9 kmh WNW 7.6 mph12.2 kmh 29.85 in1010.8 mb 0.00 in0.0 mm 0.00 in0.0 mm 0.00 in0.0 mm
05:13 AM 27.3°F-2.6°C 26.4°F-3.1°C 96% 5.4 mph NNW8.7 kmh NNW 10.5 mph16.9 kmh 29.86 in1011.2 mb 0.00 in0.0 mm 0.00 in0.0 mm 0.00 in0.0 mm
05:18 AM 27.0°F-2.8°C 26.1°F-3.3°C 96% 4.0 mph SW6.4 kmh SW 10.5 mph16.9 kmh 29.86 in1011.2 mb 0.00 in0.0 mm 0.00 in0.0 mm 0.00 in0.0 mm
05:23 AM 26.8°F-2.9°C 25.9°F-3.4°C 96% 4.5 mph WNW7.2 kmh WNW 7.4 mph11.9 kmh 29.87 in1011.5 mb 0.00 in0.0 mm 0.00 in0.0 mm 0.00 in0.0 mm
05:28 AM 26.2°F-3.2°C 25.3°F-3.7°C 96% 2.5 mph WNW4.0 kmh WNW 4.9 mph7.9 kmh 29.88 in1011.9 mb 0.00 in0.0 mm 0.00 in0.0 mm 0.00 in0.0 mm
05:33 AM 25.7°F-3.5°C 24.8°F-4.0°C 96% 3.8 mph NW6.1 kmh NW 8.1 mph13.0 kmh 29.88 in1011.9 mb 0.00 in0.0 mm 0.00 in0.0 mm 0.00 in0.0 mm
05:38 AM 25.3°F-3.7°C 24.1°F-4.4°C 95% 3.8 mph N6.1 kmh N 9.2 mph14.8 kmh 29.89 in1012.2 mb 0.00 in0.0 mm 0.00 in0.0 mm 0.00 in0.0 mm
05:43 AM 25.0°F-3.9°C 23.7°F-4.6°C 95% 4.0 mph W6.4 kmh W 8.5 mph13.7 kmh 29.89 in1012.2 mb 0.00 in0.0 mm 0.00 in0.0 mm 0.00 in0.0 mm
05:48 AM 24.8°F-4.0°C 23.5°F-4.7°C 95% 3.4 mph N5.5 kmh N 6.0 mph9.7 kmh 29.89 in1012.2 mb 0.00 in0.0 mm 0.00 in0.0 mm 0.00 in0.0 mm
05:53 AM 24.4°F-4.2°C 23.2°F-4.9°C 95% 2.9 mph 4.7 kmh 8.5 mph13.7 kmh 29.90 in1012.5 mb 0.00 in0.0 mm 0.00 in0.0 mm 0.00 in0.0 mm
05:58 AM 24.1°F-4.4°C 22.8°F-5.1°C 95% 3.1 mph N5.0 kmh N 5.8 mph9.3 kmh 29.90 in1012.5 mb 0.00 in0.0 mm 0.00 in0.0 mm 0.00 in0.0 mm
06:03 AM 23.9°F-4.5°C 22.6°F-5.2°C 95% 3.6 mph N5.8 kmh N 10.5 mph16.9 kmh 29.91 in1012.9 mb 0.00 in0.0 mm 0.00 in0.0 mm 0.00 in0.0 mm
06:08 AM 23.5°F-4.7°C 22.6°F-5.2°C 96% 2.9 mph W4.7 kmh W 4.9 mph7.9 kmh 29.91 in1012.9 mb 0.00 in0.0 mm 0.00 in0.0 mm 0.00 in0.0 mm
06:13 AM 23.4°F-4.8°C 22.5°F-5.3°C 96% 2.9 mph NNE4.7 kmh NNE 4.5 mph7.2 kmh 29.91 in1012.9 mb 0.00 in0.0 mm 0.00 in0.0 mm 0.00 in0.0 mm
06:18 AM 23.4°F-4.8°C 22.5°F-5.3°C 96% 2.7 mph N4.3 kmh N 5.1 mph8.2 kmh 29.92 in1013.2 mb 0.00 in0.0 mm 0.00 in0.0 mm 0.00 in0.0 mm
06:23 AM 23.4°F-4.8°C 22.5°F-5.3°C 96% 2.7 mph NNW4.3 kmh NNW 5.6 mph9.0 kmh 29.92 in1013.2 mb 0.00 in0.0 mm 0.00 in0.0 mm 0.00 in0.0 mm
06:28 AM 23.2°F-4.9°C 22.3°F-5.4°C 96% 2.7 mph N4.3 kmh N 3.8 mph6.1 kmh 29.92 in1013.2 mb 0.00 in0.0 mm 0.00 in0.0 mm 0.00 in0.0 mm
06:33 AM 23.0°F-5.0°C 22.1°F-5.5°C 96% 2.9 mph W4.7 kmh W 6.5 mph10.5 kmh 29.93 in1013.5 mb 0.00 in0.0 mm 0.00 in0.0 mm 0.00 in0.0 mm
06:38 AM 23.2°F-4.9°C 22.3°F-5.4°C 96% 2.7 mph NNW4.3 kmh NNW 5.6 mph9.0 kmh 29.93 in1013.5 mb 0.00 in0.0 mm 0.00 in0.0 mm 0.00 in0.0 mm
06:43 AM 23.0°F-5.0°C 22.1°F-5.5°C 96% 1.8 mph NE2.9 kmh NE 5.1 mph8.2 kmh 29.93 in1013.5 mb 0.00 in0.0 mm 0.00 in0.0 mm 0.00 in0.0 mm
06:48 AM 22.6°F-5.2°C 21.4°F-5.9°C 95% 1.8 mph NNE2.9 kmh NNE 3.1 mph5.0 kmh 29.94 in1013.9 mb 0.00 in0.0 mm 0.00 in0.0 mm 0.00 in0.0 mm
06:53 AM 22.6°F-5.2°C 21.7°F-5.7°C 96% 1.1 mph NE1.8 kmh NE 2.5 mph4.0 kmh 29.94 in1013.9 mb 0.00 in0.0 mm 0.00 in0.0 mm 0.00 in0.0 mm
06:58 AM 22.6°F-5.2°C 21.7°F-5.7°C 96% 2.2 mph NW3.5 kmh NW 4.0 mph6.4 kmh 29.94 in1013.9 mb 0.00 in0.0 mm 0.00 in0.0 mm 0.00 in0.0 mm
07:03 AM 22.5°F-5.3°C 21.6°F-5.8°C 96% 2.5 mph 4.0 kmh 4.7 mph7.6 kmh 29.95 in1014.2 mb 0.00 in0.0 mm 0.00 in0.0 mm 0.00 in0.0 mm
07:08 AM 22.3°F-5.4°C 21.0°F-6.1°C 95% 4.0 mph N6.4 kmh N 7.6 mph12.2 kmh 29.95 in1014.2 mb 0.00 in0.0 mm 0.00 in0.0 mm 0.00 in0.0 mm
07:13 AM 22.1°F-5.5°C 20.8°F-6.2°C 95% 2.2 mph N3.5 kmh N 6.3 mph10.1 kmh 29.95 in1014.2 mb 0.00 in0.0 mm 0.00 in0.0 mm 0.00 in0.0 mm
07:18 AM 22.1°F-5.5°C 20.8°F-6.2°C 95% 2.2 mph NNE3.5 kmh NNE 4.9 mph7.9 kmh 29.96 in1014.6 mb 0.00 in0.0 mm 0.00 in0.0 mm 0.00 in0.0 mm
07:23 AM 22.1°F-5.5°C 20.8°F-6.2°C 95% 2.7 mph N4.3 kmh N 7.8 mph12.6 kmh 29.96 in1014.6 mb 0.00 in0.0 mm 0.00 in0.0 mm 0.00 in0.0 mm
07:28 AM 22.1°F-5.5°C 20.8°F-6.2°C 95% 1.8 mph NNE2.9 kmh NNE 6.5 mph10.5 kmh 29.96 in1014.6 mb 0.00 in0.0 mm 0.00 in0.0 mm 0.00 in0.0 mm
07:33 AM 21.9°F-5.6°C 20.7°F-6.3°C 95% 3.6 mph NW5.8 kmh NW 5.8 mph9.3 kmh 29.97 in1014.9 mb 0.00 in0.0 mm 0.00 in0.0 mm 0.00 in0.0 mm
07:38 AM 21.7°F-5.7°C 20.5°F-6.4°C 95% 2.7 mph N4.3 kmh N 4.5 mph7.2 kmh 29.97 in1014.9 mb 0.00 in0.0 mm 0.00 in0.0 mm 0.00 in0.0 mm
07:43 AM 21.7°F-5.7°C 20.5°F-6.4°C 95% 2.9 mph NNE4.7 kmh NNE 6.7 mph10.8 kmh 29.98 in1015.2 mb 0.00 in0.0 mm 0.00 in0.0 mm 0.00 in0.0 mm
07:48 AM 21.6°F-5.8°C 20.3°F-6.5°C 95% 2.5 mph N4.0 kmh N 5.4 mph8.7 kmh 29.98 in1015.2 mb 0.00 in0.0 mm 0.00 in0.0 mm 0.00 in0.0 mm
07:53 AM 21.2°F-6.0°C 19.9°F-6.7°C 95% 1.8 mph NW2.9 kmh NW 4.7 mph7.6 kmh 29.98 in1015.2 mb 0.00 in0.0 mm 0.00 in0.0 mm 0.00 in0.0 mm
07:58 AM 21.0°F-6.1°C 19.8°F-6.8°C 95% 3.1 mph N5.0 kmh N 5.8 mph9.3 kmh 29.98 in1015.2 mb 0.00 in0.0 mm 0.00 in0.0 mm 0.00 in0.0 mm
08:03 AM 21.0°F-6.1°C 19.8°F-6.8°C 95% 1.3 mph ESE2.1 kmh ESE 3.6 mph5.8 kmh 29.99 in1015.6 mb 0.00 in0.0 mm 0.00 in0.0 mm 0.00 in0.0 mm
08:08 AM 21.0°F-6.1°C 19.8°F-6.8°C 95% 1.8 mph N2.9 kmh N 3.8 mph6.1 kmh 29.99 in1015.6 mb 0.00 in0.0 mm 0.00 in0.0 mm 0.00 in0.0 mm
08:13 AM 21.0°F-6.1°C 19.8°F-6.8°C 95% 1.6 mph W2.6 kmh W 5.1 mph8.2 kmh 29.99 in1015.6 mb 0.00 in0.0 mm 0.00 in0.0 mm 0.00 in0.0 mm
08:23 AM 20.8°F-6.2°C 19.6°F-6.9°C 95% 2.5 mph N4.0 kmh N 5.6 mph9.0 kmh 29.99 in1015.6 mb 0.00 in0.0 mm 0.00 in0.0 mm 0.00 in0.0 mm
08:28 AM 20.7°F-6.3°C 19.4°F-7.0°C 95% 1.8 mph N2.9 kmh N 3.6 mph5.8 kmh 29.99 in1015.6 mb 0.00 in0.0 mm 0.00 in0.0 mm 0.00 in0.0 mm
08:33 AM 20.7°F-6.3°C 19.4°F-7.0°C 95% 1.8 mph ENE2.9 kmh ENE 2.7 mph4.3 kmh 29.99 in1015.6 mb 0.00 in0.0 mm 0.00 in0.0 mm 0.00 in0.0 mm
08:38 AM 20.7°F-6.3°C 19.4°F-7.0°C 95% 1.6 mph E2.6 kmh E 2.7 mph4.3 kmh 30.00 in1015.9 mb 0.00 in0.0 mm 0.00 in0.0 mm 0.00 in0.0 mm
08:43 AM 20.7°F-6.3°C 19.4°F-7.0°C 95% 1.6 mph NE2.6 kmh NE 2.7 mph4.3 kmh 29.99 in1015.6 mb 0.00 in0.0 mm 0.00 in0.0 mm 0.00 in0.0 mm
08:48 AM 20.7°F-6.3°C 19.4°F-7.0°C 95% 1.3 mph NE2.1 kmh NE 2.7 mph4.3 kmh 29.99 in1015.6 mb 0.00 in0.0 mm 0.00 in0.0 mm 0.00 in0.0 mm
08:53 AM 20.8°F-6.2°C 19.6°F-6.9°C 95% 0.9 mph ENE1.4 kmh ENE 1.8 mph2.9 kmh 29.99 in1015.6 mb 0.00 in0.0 mm 0.00 in0.0 mm 0.00 in0.0 mm
08:58 AM 20.7°F-6.3°C 19.4°F-7.0°C 95% 1.3 mph WSW2.1 kmh WSW 3.4 mph5.5 kmh 29.99 in1015.6 mb 0.00 in0.0 mm 0.00 in0.0 mm 0.00 in0.0 mm
09:03 AM 20.7°F-6.3°C 19.4°F-7.0°C 95% 2.0 mph SW3.2 kmh SW 6.9 mph11.1 kmh 29.99 in1015.6 mb 0.00 in0.0 mm 0.00 in0.0 mm 0.00 in0.0 mm
09:08 AM 20.8°F-6.2°C 19.6°F-6.9°C 95% 1.8 mph NNE2.9 kmh NNE 3.4 mph5.5 kmh 30.00 in1015.9 mb 0.00 in0.0 mm 0.00 in0.0 mm 0.00 in0.0 mm
09:13 AM 20.8°F-6.2°C 19.6°F-6.9°C 95% 2.5 mph SSW4.0 kmh SSW 4.3 mph6.9 kmh 30.00 in1015.9 mb 0.00 in0.0 mm 0.00 in0.0 mm 0.00 in0.0 mm
09:18 AM 20.8°F-6.2°C 19.6°F-6.9°C 95% 2.0 mph WSW3.2 kmh WSW 3.6 mph5.8 kmh 30.00 in1015.9 mb 0.00 in0.0 mm 0.00 in0.0 mm 0.00 in0.0 mm
09:23 AM 20.8°F-6.2°C 19.6°F-6.9°C 95% 1.1 mph ESE1.8 kmh ESE 1.8 mph2.9 kmh 30.00 in1015.9 mb 0.00 in0.0 mm 0.00 in0.0 mm 0.00 in0.0 mm
09:28 AM 20.8°F-6.2°C 19.6°F-6.9°C 95% 0.9 mph ENE1.4 kmh ENE 2.2 mph3.5 kmh 30.00 in1015.9 mb 0.00 in0.0 mm 0.00 in0.0 mm 0.00 in0.0 mm
09:33 AM 20.8°F-6.2°C 19.6°F-6.9°C 95% 2.2 mph S3.5 kmh S 3.4 mph5.5 kmh 30.01 in1016.3 mb 0.00 in0.0 mm 0.00 in0.0 mm 0.00 in0.0 mm
09:38 AM 21.0°F-6.1°C 19.8°F-6.8°C 95% 1.1 mph S1.8 kmh S 2.5 mph4.0 kmh 30.01 in1016.3 mb 0.00 in0.0 mm 0.00 in0.0 mm 0.00 in0.0 mm
09:43 AM 21.0°F-6.1°C 19.8°F-6.8°C 95% 1.6 mph SSE2.6 kmh SSE 3.8 mph6.1 kmh 30.01 in1016.3 mb 0.00 in0.0 mm 0.00 in0.0 mm 0.00 in0.0 mm
09:48 AM 21.0°F-6.1°C 19.8°F-6.8°C 95% 2.7 mph S4.3 kmh S 6.0 mph9.7 kmh 30.01 in1016.3 mb 0.00 in0.0 mm 0.00 in0.0 mm 0.00 in0.0 mm
09:53 AM 21.2°F-6.0°C 19.9°F-6.7°C 95% 1.8 mph WNW2.9 kmh WNW 6.3 mph10.1 kmh 30.01 in1016.3 mb 0.00 in0.0 mm 0.00 in0.0 mm 0.00 in0.0 mm
09:58 AM 21.2°F-6.0°C 19.9°F-6.7°C 95% 1.3 mph E2.1 kmh E 2.2 mph3.5 kmh 30.02 in1016.6 mb 0.00 in0.0 mm 0.00 in0.0 mm 0.00 in0.0 mm
10:03 AM 21.2°F-6.0°C 19.9°F-6.7°C 95% 1.3 mph SW2.1 kmh SW 3.4 mph5.5 kmh 30.02 in1016.6 mb 0.00 in0.0 mm 0.00 in0.0 mm 0.00 in0.0 mm
10:08 AM 21.4°F-5.9°C 20.1°F-6.6°C 95% 1.3 mph NE2.1 kmh NE 2.7 mph4.3 kmh 30.02 in1016.6 mb 0.00 in0.0 mm 0.00 in0.0 mm 0.00 in0.0 mm
10:13 AM 21.2°F-6.0°C 19.9°F-6.7°C 95% 3.1 mph NNW5.0 kmh NNW 8.1 mph13.0 kmh 30.02 in1016.6 mb 0.00 in0.0 mm 0.00 in0.0 mm 0.00 in0.0 mm
10:18 AM 21.0°F-6.1°C 19.8°F-6.8°C 95% 1.6 mph ESE2.6 kmh ESE 4.5 mph7.2 kmh 30.02 in1016.6 mb 0.00 in0.0 mm 0.00 in0.0 mm 0.00 in0.0 mm
10:23 AM 21.2°F-6.0°C 19.9°F-6.7°C 95% 1.6 mph NNE2.6 kmh NNE 3.4 mph5.5 kmh 30.03 in1016.9 mb 0.00 in0.0 mm 0.00 in0.0 mm 0.00 in0.0 mm
10:28 AM 21.0°F-6.1°C 19.8°F-6.8°C 95% 1.8 mph WSW2.9 kmh WSW 5.1 mph8.2 kmh 30.03 in1016.9 mb 0.00 in0.0 mm 0.00 in0.0 mm 0.00 in0.0 mm
10:33 AM 21.2°F-6.0°C 19.9°F-6.7°C 95% 1.6 mph ENE2.6 kmh ENE 2.9 mph4.7 kmh 30.03 in1016.9 mb 0.00 in0.0 mm 0.00 in0.0 mm 0.00 in0.0 mm
10:38 AM 21.4°F-5.9°C 20.1°F-6.6°C 95% 0.7 mph SE1.1 kmh SE 1.6 mph2.6 kmh 30.03 in1016.9 mb 0.00 in0.0 mm 0.00 in0.0 mm 0.00 in0.0 mm
10:43 AM 21.2°F-6.0°C 19.9°F-6.7°C 95% 1.3 mph N2.1 kmh N 2.5 mph4.0 kmh 30.03 in1016.9 mb 0.00 in0.0 mm 0.00 in0.0 mm 0.00 in0.0 mm
10:48 AM 21.4°F-5.9°C 19.9°F-6.7°C 94% 1.8 mph ESE2.9 kmh ESE 3.6 mph5.8 kmh 30.03 in1016.9 mb 0.00 in0.0 mm 0.00 in0.0 mm 0.00 in0.0 mm
10:53 AM 21.6°F-5.8°C 20.3°F-6.5°C 95% 1.8 mph 2.9 kmh 3.8 mph6.1 kmh 30.03 in1016.9 mb 0.00 in0.0 mm 0.00 in0.0 mm 0.00 in0.0 mm
10:58 AM 21.7°F-5.7°C 20.5°F-6.4°C 95% 2.5 mph SSW4.0 kmh SSW 4.7 mph7.6 kmh 30.04 in1017.3 mb 0.00 in0.0 mm 0.00 in0.0 mm 0.00 in0.0 mm
11:03 AM 21.7°F-5.7°C 20.5°F-6.4°C 95% 1.3 mph SSW2.1 kmh SSW 3.1 mph5.0 kmh 30.04 in1017.3 mb 0.00 in0.0 mm 0.00 in0.0 mm 0.00 in0.0 mm
11:08 AM 21.7°F-5.7°C 20.3°F-6.5°C 94% 1.3 mph NNE2.1 kmh NNE 2.7 mph4.3 kmh 30.04 in1017.3 mb 0.00 in0.0 mm 0.00 in0.0 mm 0.00 in0.0 mm
11:13 AM 21.7°F-5.7°C 20.3°F-6.5°C 94% 1.6 mph E2.6 kmh E 2.2 mph3.5 kmh 30.04 in1017.3 mb 0.00 in0.0 mm 0.00 in0.0 mm 0.00 in0.0 mm
11:18 AM 21.7°F-5.7°C 20.3°F-6.5°C 94% 2.0 mph E3.2 kmh E 4.7 mph7.6 kmh 30.04 in1017.3 mb 0.00 in0.0 mm 0.00 in0.0 mm 0.00 in0.0 mm
11:23 AM 21.9°F-5.6°C 20.5°F-6.4°C 94% 3.4 mph NNW5.5 kmh NNW 6.9 mph11.1 kmh 30.04 in1017.3 mb 0.00 in0.0 mm 0.00 in0.0 mm 0.00 in0.0 mm
11:28 AM 21.9°F-5.6°C 20.5°F-6.4°C 94% 2.7 mph SW4.3 kmh SW 5.6 mph9.0 kmh 30.04 in1017.3 mb 0.00 in0.0 mm 0.00 in0.0 mm 0.00 in0.0 mm
11:33 AM 21.9°F-5.6°C 20.5°F-6.4°C 94% 1.6 mph NW2.6 kmh NW 6.9 mph11.1 kmh 30.04 in1017.3 mb 0.00 in0.0 mm 0.00 in0.0 mm 0.00 in0.0 mm
11:38 AM 21.7°F-5.7°C 19.8°F-6.8°C 92% 3.1 mph W5.0 kmh W 6.0 mph9.7 kmh 30.04 in1017.3 mb 0.00 in0.0 mm 0.00 in0.0 mm 0.00 in0.0 mm
11:43 AM 21.9°F-5.6°C 19.9°F-6.7°C 92% 1.6 mph SE2.6 kmh SE 4.0 mph6.4 kmh 30.05 in1017.6 mb 0.00 in0.0 mm 0.00 in0.0 mm 0.00 in0.0 mm
11:48 AM 21.7°F-5.7°C 19.8°F-6.8°C 92% 1.3 mph E2.1 kmh E 2.5 mph4.0 kmh 30.05 in1017.6 mb 0.00 in0.0 mm 0.00 in0.0 mm 0.00 in0.0 mm
11:53 AM 22.1°F-5.5°C 20.1°F-6.6°C 92% 4.0 mph SW6.4 kmh SW 7.6 mph12.2 kmh 30.05 in1017.6 mb 0.00 in0.0 mm 0.00 in0.0 mm 0.00 in0.0 mm
11:58 AM 21.9°F-5.6°C 19.9°F-6.7°C 92% 1.8 mph ESE2.9 kmh ESE 4.0 mph6.4 kmh 30.06 in1017.9 mb 0.00 in0.0 mm 0.00 in0.0 mm 0.00 in0.0 mm
12:08 PM 21.7°F-5.7°C 19.6°F-6.9°C 91% 2.0 mph N3.2 kmh N 4.3 mph6.9 kmh 30.06 in1017.9 mb 0.00 in0.0 mm 0.00 in0.0 mm 0.00 in0.0 mm
12:13 PM 21.6°F-5.8°C 19.4°F-7.0°C 91% 1.8 mph ENE2.9 kmh ENE 3.6 mph5.8 kmh 30.06 in1017.9 mb 0.00 in0.0 mm 0.00 in0.0 mm 0.00 in0.0 mm
12:18 PM 21.2°F-6.0°C 19.0°F-7.2°C 91% 1.3 mph SSW2.1 kmh SSW 3.4 mph5.5 kmh 30.07 in1018.3 mb 0.00 in0.0 mm 0.00 in0.0 mm 0.00 in0.0 mm
12:23 PM 21.0°F-6.1°C 18.9°F-7.3°C 91% 1.6 mph NE2.6 kmh NE 3.1 mph5.0 kmh 30.07 in1018.3 mb 0.00 in0.0 mm 0.00 in0.0 mm 0.00 in0.0 mm
12:28 PM 21.2°F-6.0°C 18.7°F-7.4°C 90% 1.8 mph SSE2.9 kmh SSE 3.4 mph5.5 kmh 30.07 in1018.3 mb 0.00 in0.0 mm 0.00 in0.0 mm 0.00 in0.0 mm
12:33 PM 21.2°F-6.0°C 18.1°F-7.7°C 88% 1.3 mph SW2.1 kmh SW 5.4 mph8.7 kmh 30.07 in1018.3 mb 0.00 in0.0 mm 0.00 in0.0 mm 0.00 in0.0 mm
12:38 PM 21.2°F-6.0°C 17.6°F-8.0°C 86% 1.6 mph SW2.6 kmh SW 3.6 mph5.8 kmh 30.08 in1018.6 mb 0.00 in0.0 mm 0.00 in0.0 mm 0.00 in0.0 mm
12:43 PM 21.4°F-5.9°C 17.1°F-8.3°C 83% 1.8 mph S2.9 kmh S 3.1 mph5.0 kmh 30.08 in1018.6 mb 0.00 in0.0 mm 0.00 in0.0 mm 0.00 in0.0 mm
12:48 PM 21.4°F-5.9°C 16.2°F-8.8°C 80% 2.0 mph WSW3.2 kmh WSW 4.0 mph6.4 kmh 30.07 in1018.3 mb 0.00 in0.0 mm 0.00 in0.0 mm 0.00 in0.0 mm
12:53 PM 21.7°F-5.7°C 16.5°F-8.6°C 80% 3.4 mph S5.5 kmh S 5.8 mph9.3 kmh 30.07 in1018.3 mb 0.00 in0.0 mm 0.00 in0.0 mm 0.00 in0.0 mm
12:58 PM 21.7°F-5.7°C 16.0°F-8.9°C 78% 3.4 mph SSW5.5 kmh SSW 5.8 mph9.3 kmh 30.08 in1018.6 mb 0.00 in0.0 mm 0.00 in0.0 mm 0.00 in0.0 mm
01:03 PM 21.2°F-6.0°C 15.6°F-9.1°C 79% 1.3 mph NE2.1 kmh NE 2.2 mph3.5 kmh 30.07 in1018.3 mb 0.00 in0.0 mm 0.00 in0.0 mm 0.00 in0.0 mm
01:08 PM 21.2°F-6.0°C 15.4°F-9.2°C 78% 2.0 mph NW3.2 kmh NW 4.5 mph7.2 kmh 30.07 in1018.3 mb 0.00 in0.0 mm 0.00 in0.0 mm 0.00 in0.0 mm
01:13 PM 21.0°F-6.1°C 15.3°F-9.3°C 78% 1.8 mph S2.9 kmh S 4.5 mph7.2 kmh 30.08 in1018.6 mb 0.00 in0.0 mm 0.00 in0.0 mm 0.00 in0.0 mm
01:18 PM 21.2°F-6.0°C 15.6°F-9.1°C 79% 2.0 mph NE3.2 kmh NE 4.3 mph6.9 kmh 30.07 in1018.3 mb 0.00 in0.0 mm 0.00 in0.0 mm 0.00 in0.0 mm
01:23 PM 21.2°F-6.0°C 15.6°F-9.1°C 79% 1.8 mph SSW2.9 kmh SSW 4.5 mph7.2 kmh 30.08 in1018.6 mb 0.00 in0.0 mm 0.00 in0.0 mm 0.00 in0.0 mm
01:28 PM 20.8°F-6.2°C 15.6°F-9.1°C 80% 1.1 mph S1.8 kmh S 2.2 mph3.5 kmh 30.08 in1018.6 mb 0.00 in0.0 mm 0.00 in0.0 mm 0.00 in0.0 mm
01:33 PM 20.8°F-6.2°C 16.0°F-8.9°C 81% 2.5 mph NNW4.0 kmh NNW 4.5 mph7.2 kmh 30.08 in1018.6 mb 0.00 in0.0 mm 0.00 in0.0 mm 0.00 in0.0 mm
01:38 PM 20.7°F-6.3°C 15.4°F-9.2°C 80% 2.0 mph NNE3.2 kmh NNE 4.0 mph6.4 kmh 30.08 in1018.6 mb 0.00 in0.0 mm 0.00 in0.0 mm 0.00 in0.0 mm
01:43 PM 20.5°F-6.4°C 15.3°F-9.3°C 80% 1.6 mph SW2.6 kmh SW 3.4 mph5.5 kmh 30.08 in1018.6 mb 0.00 in0.0 mm 0.00 in0.0 mm 0.00 in0.0 mm
01:48 PM 20.7°F-6.3°C 14.9°F-9.5°C 78% 2.5 mph S4.0 kmh S 4.7 mph7.6 kmh 30.08 in1018.6 mb 0.00 in0.0 mm 0.00 in0.0 mm 0.00 in0.0 mm
01:53 PM 20.8°F-6.2°C 14.5°F-9.7°C 76% 1.8 mph S2.9 kmh S 3.1 mph5.0 kmh 30.07 in1018.3 mb 0.00 in0.0 mm 0.00 in0.0 mm 0.00 in0.0 mm
01:58 PM 20.8°F-6.2°C 14.2°F-9.9°C 75% 1.8 mph S2.9 kmh S 3.6 mph5.8 kmh 30.07 in1018.3 mb 0.00 in0.0 mm 0.00 in0.0 mm 0.00 in0.0 mm
02:03 PM 20.8°F-6.2°C 13.5°F-10.3°C 73% 2.7 mph NNW4.3 kmh NNW 5.1 mph8.2 kmh 30.07 in1018.3 mb 0.00 in0.0 mm 0.00 in0.0 mm 0.00 in0.0 mm
02:08 PM 21.0°F-6.1°C 14.0°F-10.0°C 74% 2.2 mph SW3.5 kmh SW 5.6 mph9.0 kmh 30.08 in1018.6 mb 0.00 in0.0 mm 0.00 in0.0 mm 0.00 in0.0 mm
02:13 PM 21.0°F-6.1°C 13.6°F-10.2°C 73% 2.5 mph NNE4.0 kmh NNE 4.9 mph7.9 kmh 30.08 in1018.6 mb 0.00 in0.0 mm 0.00 in0.0 mm 0.00 in0.0 mm
02:18 PM 21.0°F-6.1°C 12.7°F-10.7°C 70% 4.3 mph SSW6.9 kmh SSW 7.2 mph11.6 kmh 30.07 in1018.3 mb 0.00 in0.0 mm 0.00 in0.0 mm 0.00 in0.0 mm
02:23 PM 21.0°F-6.1°C 12.7°F-10.7°C 70% 1.6 mph NE2.6 kmh NE 2.9 mph4.7 kmh 30.07 in1018.3 mb 0.00 in0.0 mm 0.00 in0.0 mm 0.00 in0.0 mm
02:28 PM 21.0°F-6.1°C 12.7°F-10.7°C 70% 3.6 mph WSW5.8 kmh WSW 6.5 mph10.5 kmh 30.07 in1018.3 mb 0.00 in0.0 mm 0.00 in0.0 mm 0.00 in0.0 mm
02:33 PM 21.2°F-6.0°C 12.9°F-10.6°C 70% 3.1 mph S5.0 kmh S 4.3 mph6.9 kmh 30.06 in1017.9 mb 0.00 in0.0 mm 0.00 in0.0 mm 0.00 in0.0 mm
02:38 PM 21.6°F-5.8°C 13.3°F-10.4°C 70% 2.9 mph 4.7 kmh 5.8 mph9.3 kmh 30.06 in1017.9 mb 0.00 in0.0 mm 0.00 in0.0 mm 0.00 in0.0 mm
02:43 PM 21.7°F-5.7°C 13.5°F-10.3°C 70% 2.2 mph SW3.5 kmh SW 4.5 mph7.2 kmh 30.06 in1017.9 mb 0.00 in0.0 mm 0.00 in0.0 mm 0.00 in0.0 mm
02:48 PM 21.7°F-5.7°C 13.1°F-10.5°C 69% 2.7 mph SSW4.3 kmh SSW 6.5 mph10.5 kmh 30.07 in1018.3 mb 0.00 in0.0 mm 0.00 in0.0 mm 0.00 in0.0 mm
02:53 PM 22.1°F-5.5°C 13.5°F-10.3°C 69% 4.3 mph SSW6.9 kmh SSW 7.2 mph11.6 kmh 30.06 in1017.9 mb 0.00 in0.0 mm 0.00 in0.0 mm 0.00 in0.0 mm
02:58 PM 22.3°F-5.4°C 13.3°F-10.4°C 68% 1.3 mph SSE2.1 kmh SSE 2.7 mph4.3 kmh 30.06 in1017.9 mb 0.00 in0.0 mm 0.00 in0.0 mm 0.00 in0.0 mm
03:03 PM 22.1°F-5.5°C 13.1°F-10.5°C 68% 3.6 mph SW5.8 kmh SW 11.6 mph18.7 kmh 30.07 in1018.3 mb 0.00 in0.0 mm 0.00 in0.0 mm 0.00 in0.0 mm
03:08 PM 21.7°F-5.7°C 12.4°F-10.9°C 67% 1.8 mph SSE2.9 kmh SSE 2.7 mph4.3 kmh 30.07 in1018.3 mb 0.00 in0.0 mm 0.00 in0.0 mm 0.00 in0.0 mm
03:13 PM 21.6°F-5.8°C 12.6°F-10.8°C 68% 1.8 mph SE2.9 kmh SE 3.8 mph6.1 kmh 30.07 in1018.3 mb 0.00 in0.0 mm 0.00 in0.0 mm 0.00 in0.0 mm
03:18 PM 21.6°F-5.8°C 12.9°F-10.6°C 69% 3.1 mph S5.0 kmh S 6.7 mph10.8 kmh 30.07 in1018.3 mb 0.00 in0.0 mm 0.00 in0.0 mm 0.00 in0.0 mm
03:23 PM 21.4°F-5.9°C 12.4°F-10.9°C 68% 2.0 mph S3.2 kmh S 3.6 mph5.8 kmh 30.07 in1018.3 mb 0.00 in0.0 mm 0.00 in0.0 mm 0.00 in0.0 mm
03:28 PM 21.4°F-5.9°C 12.7°F-10.7°C 69% 4.3 mph S6.9 kmh S 6.7 mph10.8 kmh 30.07 in1018.3 mb 0.00 in0.0 mm 0.00 in0.0 mm 0.00 in0.0 mm
03:33 PM 21.2°F-6.0°C 12.6°F-10.8°C 69% 1.6 mph NW2.6 kmh NW 4.7 mph7.6 kmh 30.07 in1018.3 mb 0.00 in0.0 mm 0.00 in0.0 mm 0.00 in0.0 mm
03:38 PM 21.2°F-6.0°C 12.2°F-11.0°C 68% 0.7 mph SSW1.1 kmh SSW 3.6 mph5.8 kmh 30.07 in1018.3 mb 0.00 in0.0 mm 0.00 in0.0 mm 0.00 in0.0 mm
03:43 PM 21.4°F-5.9°C 12.7°F-10.7°C 69% 1.3 mph SE2.1 kmh SE 3.4 mph5.5 kmh 30.07 in1018.3 mb 0.00 in0.0 mm 0.00 in0.0 mm 0.00 in0.0 mm
03:48 PM 21.2°F-6.0°C 12.2°F-11.0°C 68% 3.1 mph S5.0 kmh S 5.4 mph8.7 kmh 30.06 in1017.9 mb 0.00 in0.0 mm 0.00 in0.0 mm 0.00 in0.0 mm
03:53 PM 20.8°F-6.2°C 11.7°F-11.3°C 67% 2.0 mph S3.2 kmh S 5.1 mph8.2 kmh 30.06 in1017.9 mb 0.00 in0.0 mm 0.00 in0.0 mm 0.00 in0.0 mm
03:58 PM 21.0°F-6.1°C 12.2°F-11.0°C 68% 0.9 mph ENE1.4 kmh ENE 2.5 mph4.0 kmh 30.06 in1017.9 mb 0.00 in0.0 mm 0.00 in0.0 mm 0.00 in0.0 mm
04:03 PM 20.8°F-6.2°C 12.0°F-11.1°C 68% 2.9 mph SW4.7 kmh SW 7.8 mph12.6 kmh 30.06 in1017.9 mb 0.00 in0.0 mm 0.00 in0.0 mm 0.00 in0.0 mm
04:08 PM 21.0°F-6.1°C 12.2°F-11.0°C 68% 1.6 mph S2.6 kmh S 4.3 mph6.9 kmh 30.06 in1017.9 mb 0.00 in0.0 mm 0.00 in0.0 mm 0.00 in0.0 mm
04:13 PM 21.0°F-6.1°C 12.2°F-11.0°C 68% 4.7 mph S7.6 kmh S 8.3 mph13.4 kmh 30.06 in1017.9 mb 0.00 in0.0 mm 0.00 in0.0 mm 0.00 in0.0 mm
04:19 PM 20.8°F-6.2°C 11.7°F-11.3°C 67% 2.5 mph S4.0 kmh S 3.1 mph5.0 kmh 30.06 in1017.9 mb 0.00 in0.0 mm 0.00 in0.0 mm 0.00 in0.0 mm
04:24 PM 20.7°F-6.3°C 11.5°F-11.4°C 67% 2.7 mph N4.3 kmh N 4.7 mph7.6 kmh 30.06 in1017.9 mb 0.00 in0.0 mm 0.00 in0.0 mm 0.00 in0.0 mm
04:29 PM 20.5°F-6.4°C 11.3°F-11.5°C 67% 2.0 mph SSE3.2 kmh SSE 3.1 mph5.0 kmh 30.06 in1017.9 mb 0.00 in0.0 mm 0.00 in0.0 mm 0.00 in0.0 mm
04:34 PM 20.5°F-6.4°C 11.3°F-11.5°C 67% 2.9 mph S4.7 kmh S 4.3 mph6.9 kmh 30.07 in1018.3 mb 0.00 in0.0 mm 0.00 in0.0 mm 0.00 in0.0 mm
04:39 PM 20.7°F-6.3°C 11.5°F-11.4°C 67% 2.5 mph SW4.0 kmh SW 4.0 mph6.4 kmh 30.07 in1018.3 mb 0.00 in0.0 mm 0.00 in0.0 mm 0.00 in0.0 mm
04:44 PM 20.8°F-6.2°C 12.0°F-11.1°C 68% 2.2 mph S3.5 kmh S 6.9 mph11.1 kmh 30.08 in1018.6 mb 0.00 in0.0 mm 0.00 in0.0 mm 0.00 in0.0 mm
04:48 PM 20.8°F-6.2°C 10.9°F-11.7°C 65% 3.6 mph S5.8 kmh S 6.3 mph10.1 kmh 30.08 in1018.6 mb 0.00 in0.0 mm 0.00 in0.0 mm 0.00 in0.0 mm
04:54 PM 20.7°F-6.3°C 10.8°F-11.8°C 65% 2.9 mph SW4.7 kmh SW 4.3 mph6.9 kmh 30.08 in1018.6 mb 0.00 in0.0 mm 0.00 in0.0 mm 0.00 in0.0 mm
04:59 PM 20.5°F-6.4°C 10.2°F-12.1°C 64% 4.0 mph S6.4 kmh S 6.5 mph10.5 kmh 30.08 in1018.6 mb 0.00 in0.0 mm 0.00 in0.0 mm 0.00 in0.0 mm
05:04 PM 20.5°F-6.4°C 10.2°F-12.1°C 64% 2.7 mph SE4.3 kmh SE 5.6 mph9.0 kmh 30.09 in1019.0 mb 0.00 in0.0 mm 0.00 in0.0 mm 0.00 in0.0 mm
05:09 PM 20.3°F-6.5°C 10.4°F-12.0°C 65% 2.2 mph S3.5 kmh S 4.7 mph7.6 kmh 30.09 in1019.0 mb 0.00 in0.0 mm 0.00 in0.0 mm 0.00 in0.0 mm
05:14 PM 19.9°F-6.7°C 10.0°F-12.2°C 65% 1.8 mph S2.9 kmh S 3.6 mph5.8 kmh 30.09 in1019.0 mb 0.00 in0.0 mm 0.00 in0.0 mm 0.00 in0.0 mm
05:19 PM 19.8°F-6.8°C 9.9°F-12.3°C 65% 1.6 mph S2.6 kmh S 2.7 mph4.3 kmh 30.10 in1019.3 mb 0.00 in0.0 mm 0.00 in0.0 mm 0.00 in0.0 mm
05:24 PM 19.6°F-6.9°C 9.7°F-12.4°C 65% 2.0 mph S3.2 kmh S 3.4 mph5.5 kmh 30.10 in1019.3 mb 0.00 in0.0 mm 0.00 in0.0 mm 0.00 in0.0 mm
05:29 PM 19.4°F-7.0°C 10.2°F-12.1°C 67% 1.3 mph E2.1 kmh E 4.0 mph6.4 kmh 30.10 in1019.3 mb 0.00 in0.0 mm 0.00 in0.0 mm 0.00 in0.0 mm
05:34 PM 19.4°F-7.0°C 10.2°F-12.1°C 67% 1.8 mph SE2.9 kmh SE 2.9 mph4.7 kmh 30.10 in1019.3 mb 0.00 in0.0 mm 0.00 in0.0 mm 0.00 in0.0 mm
05:39 PM 19.4°F-7.0°C 9.5°F-12.5°C 65% 3.8 mph SW6.1 kmh SW 7.6 mph12.2 kmh 30.11 in1019.6 mb 0.00 in0.0 mm 0.00 in0.0 mm 0.00 in0.0 mm
05:44 PM 19.4°F-7.0°C 9.5°F-12.5°C 65% 1.6 mph SSE2.6 kmh SSE 2.7 mph4.3 kmh 30.11 in1019.6 mb 0.00 in0.0 mm 0.00 in0.0 mm 0.00 in0.0 mm
05:49 PM 19.0°F-7.2°C 8.8°F-12.9°C 64% 1.8 mph S2.9 kmh S 3.4 mph5.5 kmh 30.11 in1019.6 mb 0.00 in0.0 mm 0.00 in0.0 mm 0.00 in0.0 mm
05:54 PM 18.9°F-7.3°C 9.0°F-12.8°C 65% 2.0 mph ESE3.2 kmh ESE 3.6 mph5.8 kmh 30.12 in1020.0 mb 0.00 in0.0 mm 0.00 in0.0 mm 0.00 in0.0 mm
05:59 PM 18.5°F-7.5°C 8.6°F-13.0°C 65% 1.6 mph SE2.6 kmh SE 2.9 mph4.7 kmh 30.12 in1020.0 mb 0.00 in0.0 mm 0.00 in0.0 mm 0.00 in0.0 mm
06:04 PM 18.5°F-7.5°C 8.6°F-13.0°C 65% 0.9 mph E1.4 kmh E 1.8 mph2.9 kmh 30.12 in1020.0 mb 0.00 in0.0 mm 0.00 in0.0 mm 0.00 in0.0 mm
06:09 PM 18.3°F-7.6°C 9.1°F-12.7°C 67% 1.6 mph S2.6 kmh S 2.2 mph3.5 kmh 30.12 in1020.0 mb 0.00 in0.0 mm 0.00 in0.0 mm 0.00 in0.0 mm
06:14 PM 18.1°F-7.7°C 8.4°F-13.1°C 65% 3.1 mph S5.0 kmh S 6.7 mph10.8 kmh 30.12 in1020.0 mb 0.00 in0.0 mm 0.00 in0.0 mm 0.00 in0.0 mm
06:19 PM 18.0°F-7.8°C 8.2°F-13.2°C 65% 1.6 mph SSE2.6 kmh SSE 2.9 mph4.7 kmh 30.12 in1020.0 mb 0.00 in0.0 mm 0.00 in0.0 mm 0.00 in0.0 mm
06:24 PM 18.0°F-7.8°C 8.2°F-13.2°C 65% 3.8 mph S6.1 kmh S 6.9 mph11.1 kmh 30.12 in1020.0 mb 0.00 in0.0 mm 0.00 in0.0 mm 0.00 in0.0 mm
06:29 PM 18.1°F-7.7°C 9.0°F-12.8°C 67% 1.3 mph E2.1 kmh E 2.5 mph4.0 kmh 30.12 in1020.0 mb 0.00 in0.0 mm 0.00 in0.0 mm 0.00 in0.0 mm
06:34 PM 18.1°F-7.7°C 9.0°F-12.8°C 67% 0.4 mph SSW0.6 kmh SSW 1.1 mph1.8 kmh 30.12 in1020.0 mb 0.00 in0.0 mm 0.00 in0.0 mm 0.00 in0.0 mm
06:39 PM 18.0°F-7.8°C 8.8°F-12.9°C 67% 2.2 mph S3.5 kmh S 4.0 mph6.4 kmh 30.13 in1020.3 mb 0.00 in0.0 mm 0.00 in0.0 mm 0.00 in0.0 mm
06:44 PM 17.8°F-7.9°C 9.0°F-12.8°C 68% 1.6 mph SSW2.6 kmh SSW 3.1 mph5.0 kmh 30.13 in1020.3 mb 0.00 in0.0 mm 0.00 in0.0 mm 0.00 in0.0 mm
06:49 PM 17.2°F-8.2°C 8.2°F-13.2°C 67% 1.8 mph S2.9 kmh S 3.4 mph5.5 kmh 30.13 in1020.3 mb 0.00 in0.0 mm 0.00 in0.0 mm 0.00 in0.0 mm
06:54 PM 17.2°F-8.2°C 8.2°F-13.2°C 67% 1.8 mph S2.9 kmh S 4.7 mph7.6 kmh 30.13 in1020.3 mb 0.00 in0.0 mm 0.00 in0.0 mm 0.00 in0.0 mm
06:59 PM 16.9°F-8.4°C 7.9°F-13.4°C 67% 1.6 mph SE2.6 kmh SE 2.2 mph3.5 kmh 30.13 in1020.3 mb 0.00 in0.0 mm 0.00 in0.0 mm 0.00 in0.0 mm
07:04 PM 16.9°F-8.4°C 8.1°F-13.3°C 68% 1.6 mph SSE2.6 kmh SSE 2.0 mph3.2 kmh 30.14 in1020.7 mb 0.00 in0.0 mm 0.00 in0.0 mm 0.00 in0.0 mm
07:09 PM 16.9°F-8.4°C 8.1°F-13.3°C 68% 1.8 mph S2.9 kmh S 3.1 mph5.0 kmh 30.14 in1020.7 mb 0.00 in0.0 mm 0.00 in0.0 mm 0.00 in0.0 mm
07:14 PM 16.5°F-8.6°C 7.9°F-13.4°C 68% 1.1 mph E1.8 kmh E 2.0 mph3.2 kmh 30.14 in1020.7 mb 0.00 in0.0 mm 0.00 in0.0 mm 0.00 in0.0 mm
07:19 PM 16.5°F-8.6°C 7.9°F-13.4°C 68% 0.9 mph WNW1.4 kmh WNW 1.8 mph2.9 kmh 30.14 in1020.7 mb 0.00 in0.0 mm 0.00 in0.0 mm 0.00 in0.0 mm
07:24 PM 16.5°F-8.6°C 7.9°F-13.4°C 68% 0.9 mph S1.4 kmh S 1.8 mph2.9 kmh 30.14 in1020.7 mb 0.00 in0.0 mm 0.00 in0.0 mm 0.00 in0.0 mm
07:29 PM 16.2°F-8.8°C 7.2°F-13.8°C 67% 0.9 mph NNW1.4 kmh NNW 2.0 mph3.2 kmh 30.14 in1020.7 mb 0.00 in0.0 mm 0.00 in0.0 mm 0.00 in0.0 mm
07:34 PM 16.0°F-8.9°C 7.3°F-13.7°C 68% 0.9 mph WNW1.4 kmh WNW 1.8 mph2.9 kmh 30.13 in1020.3 mb 0.00 in0.0 mm 0.00 in0.0 mm 0.00 in0.0 mm
07:39 PM 16.0°F-8.9°C 7.5°F-13.6°C 69% 1.6 mph ENE2.6 kmh ENE 2.2 mph3.5 kmh 30.13 in1020.3 mb 0.00 in0.0 mm 0.00 in0.0 mm 0.00 in0.0 mm
07:44 PM 16.0°F-8.9°C 7.5°F-13.6°C 69% 1.1 mph NE1.8 kmh NE 2.5 mph4.0 kmh 30.13 in1020.3 mb 0.00 in0.0 mm 0.00 in0.0 mm 0.00 in0.0 mm
07:49 PM 15.8°F-9.0°C 7.2°F-13.8°C 68% 1.6 mph E2.6 kmh E 2.0 mph3.2 kmh 30.13 in1020.3 mb 0.00 in0.0 mm 0.00 in0.0 mm 0.00 in0.0 mm
07:54 PM 15.6°F-9.1°C 7.3°F-13.7°C 69% 1.1 mph SW1.8 kmh SW 1.8 mph2.9 kmh 30.13 in1020.3 mb 0.00 in0.0 mm 0.00 in0.0 mm 0.00 in0.0 mm
07:59 PM 16.0°F-8.9°C 7.9°F-13.4°C 70% 1.1 mph SE1.8 kmh SE 3.4 mph5.5 kmh 30.13 in1020.3 mb 0.00 in0.0 mm 0.00 in0.0 mm 0.00 in0.0 mm
08:04 PM 16.2°F-8.8°C 8.1°F-13.3°C 70% 0.9 mph SE1.4 kmh SE 1.8 mph2.9 kmh 30.14 in1020.7 mb 0.00 in0.0 mm 0.00 in0.0 mm 0.00 in0.0 mm
08:09 PM 16.0°F-8.9°C 7.9°F-13.4°C 70% 1.6 mph SE2.6 kmh SE 2.0 mph3.2 kmh 30.14 in1020.7 mb 0.00 in0.0 mm 0.00 in0.0 mm 0.00 in0.0 mm
08:14 PM 16.2°F-8.8°C 8.1°F-13.3°C 70% 1.1 mph SE1.8 kmh SE 2.0 mph3.2 kmh 30.14 in1020.7 mb 0.00 in0.0 mm 0.00 in0.0 mm 0.00 in0.0 mm
08:19 PM 16.0°F-8.9°C 7.9°F-13.4°C 70% 1.3 mph NE2.1 kmh NE 2.0 mph3.2 kmh 30.14 in1020.7 mb 0.00 in0.0 mm 0.00 in0.0 mm 0.00 in0.0 mm
08:24 PM 15.8°F-9.0°C 7.7°F-13.5°C 70% 1.6 mph E2.6 kmh E 2.7 mph4.3 kmh 30.14 in1020.7 mb 0.00 in0.0 mm 0.00 in0.0 mm 0.00 in0.0 mm
08:29 PM 15.6°F-9.1°C 7.5°F-13.6°C 70% 1.6 mph N2.6 kmh N 1.8 mph2.9 kmh 30.14 in1020.7 mb 0.00 in0.0 mm 0.00 in0.0 mm 0.00 in0.0 mm
08:34 PM 15.4°F-9.2°C 7.3°F-13.7°C 70% 1.3 mph NW2.1 kmh NW 1.8 mph2.9 kmh 30.14 in1020.7 mb 0.00 in0.0 mm 0.00 in0.0 mm 0.00 in0.0 mm
08:39 PM 15.3°F-9.3°C 7.5°F-13.6°C 71% 1.6 mph NE2.6 kmh NE 2.0 mph3.2 kmh 30.14 in1020.7 mb 0.00 in0.0 mm 0.00 in0.0 mm 0.00 in0.0 mm
08:44 PM 15.1°F-9.4°C 7.3°F-13.7°C 71% 1.6 mph SE2.6 kmh SE 2.7 mph4.3 kmh 30.14 in1020.7 mb 0.00 in0.0 mm 0.00 in0.0 mm 0.00 in0.0 mm
08:49 PM 15.1°F-9.4°C 7.3°F-13.7°C 71% 1.1 mph SE1.8 kmh SE 1.8 mph2.9 kmh 30.14 in1020.7 mb 0.00 in0.0 mm 0.00 in0.0 mm 0.00 in0.0 mm
08:54 PM 14.9°F-9.5°C 6.8°F-14.0°C 70% 0.9 mph SE1.4 kmh SE 2.2 mph3.5 kmh 30.14 in1020.7 mb 0.00 in0.0 mm 0.00 in0.0 mm 0.00 in0.0 mm
08:59 PM 14.7°F-9.6°C 7.0°F-13.9°C 71% 0.7 mph SE1.1 kmh SE 2.0 mph3.2 kmh 30.15 in1021.0 mb 0.00 in0.0 mm 0.00 in0.0 mm 0.00 in0.0 mm
09:04 PM 14.5°F-9.7°C 6.8°F-14.0°C 71% 1.1 mph SE1.8 kmh SE 2.0 mph3.2 kmh 30.15 in1021.0 mb 0.00 in0.0 mm 0.00 in0.0 mm 0.00 in0.0 mm
09:09 PM 14.4°F-9.8°C 6.6°F-14.1°C 71% 0.7 mph WSW1.1 kmh WSW 1.8 mph2.9 kmh 30.15 in1021.0 mb 0.00 in0.0 mm 0.00 in0.0 mm 0.00 in0.0 mm
09:14 PM 14.0°F-10.0°C 6.3°F-14.3°C 71% 0.9 mph NW1.4 kmh NW 2.2 mph3.5 kmh 30.16 in1021.3 mb 0.00 in0.0 mm 0.00 in0.0 mm 0.00 in0.0 mm
09:19 PM 13.8°F-10.1°C 6.1°F-14.4°C 71% 1.6 mph NNW2.6 kmh NNW 1.8 mph2.9 kmh 30.16 in1021.3 mb 0.00 in0.0 mm 0.00 in0.0 mm 0.00 in0.0 mm
09:24 PM 13.3°F-10.4°C 5.7°F-14.6°C 71% 0.9 mph NW1.4 kmh NW 1.8 mph2.9 kmh 30.16 in1021.3 mb 0.00 in0.0 mm 0.00 in0.0 mm 0.00 in0.0 mm
09:29 PM 13.3°F-10.4°C 6.3°F-14.3°C 73% 1.6 mph NW2.6 kmh NW 2.7 mph4.3 kmh 30.16 in1021.3 mb 0.00 in0.0 mm 0.00 in0.0 mm 0.00 in0.0 mm
09:34 PM 13.5°F-10.3°C 6.4°F-14.2°C 73% 0.9 mph NW1.4 kmh NW 1.8 mph2.9 kmh 30.16 in1021.3 mb 0.00 in0.0 mm 0.00 in0.0 mm 0.00 in0.0 mm
09:39 PM 13.5°F-10.3°C 6.4°F-14.2°C 73% 1.6 mph NNW2.6 kmh NNW 2.0 mph3.2 kmh 30.16 in1021.3 mb 0.00 in0.0 mm 0.00 in0.0 mm 0.00 in0.0 mm
09:44 PM 13.1°F-10.5°C 6.1°F-14.4°C 73% 1.3 mph NNW2.1 kmh NNW 1.6 mph2.6 kmh 30.16 in1021.3 mb 0.00 in0.0 mm 0.00 in0.0 mm 0.00 in0.0 mm
09:49 PM 13.1°F-10.5°C 6.4°F-14.2°C 74% 1.8 mph NNE2.9 kmh NNE 2.7 mph4.3 kmh 30.16 in1021.3 mb 0.00 in0.0 mm 0.00 in0.0 mm 0.00 in0.0 mm
09:54 PM 13.3°F-10.4°C 6.6°F-14.1°C 74% 1.3 mph NNE2.1 kmh NNE 2.0 mph3.2 kmh 30.16 in1021.3 mb 0.00 in0.0 mm 0.00 in0.0 mm 0.00 in0.0 mm
09:59 PM 13.1°F-10.5°C 6.4°F-14.2°C 74% 2.0 mph E3.2 kmh E 2.2 mph3.5 kmh 30.16 in1021.3 mb 0.00 in0.0 mm 0.00 in0.0 mm 0.00 in0.0 mm
10:04 PM 13.3°F-10.4°C 6.6°F-14.1°C 74% 1.1 mph NW1.8 kmh NW 2.2 mph3.5 kmh 30.17 in1021.7 mb 0.00 in0.0 mm 0.00 in0.0 mm 0.00 in0.0 mm
10:09 PM 12.9°F-10.6°C 6.3°F-14.3°C 74% 1.1 mph NW1.8 kmh NW 2.2 mph3.5 kmh 30.17 in1021.7 mb 0.00 in0.0 mm 0.00 in0.0 mm 0.00 in0.0 mm
10:14 PM 12.6°F-10.8°C 5.9°F-14.5°C 74% 1.6 mph NNW2.6 kmh NNW 2.7 mph4.3 kmh 30.16 in1021.3 mb 0.00 in0.0 mm 0.00 in0.0 mm 0.00 in0.0 mm
10:19 PM 12.7°F-10.7°C 6.1°F-14.4°C 74% 0.9 mph NW1.4 kmh NW 2.0 mph3.2 kmh 30.17 in1021.7 mb 0.00 in0.0 mm 0.00 in0.0 mm 0.00 in0.0 mm
10:24 PM 12.9°F-10.6°C 6.4°F-14.2°C 75% 1.3 mph S2.1 kmh S 3.1 mph5.0 kmh 30.16 in1021.3 mb 0.00 in0.0 mm 0.00 in0.0 mm 0.00 in0.0 mm
10:29 PM 12.9°F-10.6°C 6.3°F-14.3°C 74% 1.1 mph NW1.8 kmh NW 2.0 mph3.2 kmh 30.16 in1021.3 mb 0.00 in0.0 mm 0.00 in0.0 mm 0.00 in0.0 mm
10:34 PM 12.6°F-10.8°C 5.9°F-14.5°C 74% 0.9 mph NW1.4 kmh NW 1.8 mph2.9 kmh 30.16 in1021.3 mb 0.00 in0.0 mm 0.00 in0.0 mm 0.00 in0.0 mm
10:39 PM 12.4°F-10.9°C 5.7°F-14.6°C 74% 1.3 mph NNW2.1 kmh NNW 2.0 mph3.2 kmh 30.16 in1021.3 mb 0.00 in0.0 mm 0.00 in0.0 mm 0.00 in0.0 mm
10:44 PM 12.6°F-10.8°C 6.1°F-14.4°C 75% 1.3 mph NW2.1 kmh NW 1.8 mph2.9 kmh 30.16 in1021.3 mb 0.00 in0.0 mm 0.00 in0.0 mm 0.00 in0.0 mm
10:49 PM 12.6°F-10.8°C 5.9°F-14.5°C 74% 0.4 mph NW0.6 kmh NW 2.0 mph3.2 kmh 30.16 in1021.3 mb 0.00 in0.0 mm 0.00 in0.0 mm 0.00 in0.0 mm
10:54 PM 12.0°F-11.1°C 5.4°F-14.8°C 74% 1.8 mph NNE2.9 kmh NNE 2.2 mph3.5 kmh 30.16 in1021.3 mb 0.00 in0.0 mm 0.00 in0.0 mm 0.00 in0.0 mm
10:59 PM 12.0°F-11.1°C 5.4°F-14.8°C 74% 1.6 mph NNW2.6 kmh NNW 1.8 mph2.9 kmh 30.16 in1021.3 mb 0.00 in0.0 mm 0.00 in0.0 mm 0.00 in0.0 mm
11:04 PM 12.0°F-11.1°C 5.5°F-14.7°C 75% 1.6 mph NNW2.6 kmh NNW 1.8 mph2.9 kmh 30.16 in1021.3 mb 0.00 in0.0 mm 0.00 in0.0 mm 0.00 in0.0 mm
11:09 PM 12.0°F-11.1°C 5.5°F-14.7°C 75% 1.8 mph NW2.9 kmh NW 2.0 mph3.2 kmh 30.17 in1021.7 mb 0.00 in0.0 mm 0.00 in0.0 mm 0.00 in0.0 mm
11:14 PM 11.3°F-11.5°C 4.6°F-15.2°C 74% 1.3 mph NNW2.1 kmh NNW 1.8 mph2.9 kmh 30.17 in1021.7 mb 0.00 in0.0 mm 0.00 in0.0 mm 0.00 in0.0 mm
11:19 PM 10.9°F-11.7°C 4.6°F-15.2°C 75% 0.9 mph NNW1.4 kmh NNW 2.0 mph3.2 kmh 30.17 in1021.7 mb 0.00 in0.0 mm 0.00 in0.0 mm 0.00 in0.0 mm
11:24 PM 11.3°F-11.5°C 5.0°F-15.0°C 75% 1.3 mph N2.1 kmh N 2.2 mph3.5 kmh 30.17 in1021.7 mb 0.00 in0.0 mm 0.00 in0.0 mm 0.00 in0.0 mm
11:29 PM 11.5°F-11.4°C 5.4°F-14.8°C 76% 1.3 mph S2.1 kmh S 3.6 mph5.8 kmh 30.17 in1021.7 mb 0.00 in0.0 mm 0.00 in0.0 mm 0.00 in0.0 mm
11:34 PM 11.5°F-11.4°C 5.2°F-14.9°C 75% 0.9 mph S1.4 kmh S 1.8 mph2.9 kmh 30.16 in1021.3 mb 0.00 in0.0 mm 0.00 in0.0 mm 0.00 in0.0 mm
11:39 PM 11.3°F-11.5°C 5.0°F-15.0°C 75% 1.3 mph NW2.1 kmh NW 2.2 mph3.5 kmh 30.17 in1021.7 mb 0.00 in0.0 mm 0.00 in0.0 mm 0.00 in0.0 mm
11:44 PM 11.1°F-11.6°C 4.8°F-15.1°C 75% 1.6 mph NW2.6 kmh NW 2.0 mph3.2 kmh 30.17 in1021.7 mb 0.00 in0.0 mm 0.00 in0.0 mm 0.00 in0.0 mm
11:49 PM 11.5°F-11.4°C 5.4°F-14.8°C 76% 1.6 mph SSE2.6 kmh SSE 3.1 mph5.0 kmh 30.17 in1021.7 mb 0.00 in0.0 mm 0.00 in0.0 mm 0.00 in0.0 mm
11:54 PM 11.5°F-11.4°C 5.2°F-14.9°C 75% 1.3 mph S2.1 kmh S 2.2 mph3.5 kmh 30.17 in1021.7 mb 0.00 in0.0 mm 0.00 in0.0 mm 0.00 in0.0 mm
11:59 PM 11.1°F-11.6°C 4.8°F-15.1°C 75% 1.1 mph SSE1.8 kmh SSE 2.5 mph4.0 kmh 30.17 in1021.7 mb 0.00 in0.0 mm 0.00 in0.0 mm 0.00 in0.0 mm